Flight Track Log - Related Links

Times and Time Zones

All times are in EDT time to prevent confusion due to time zone crossing. See the N226JP flight status page for this flight to view local times or setup timezone preferences in your user account.

Time Position Orientation Groundspeed Altitude Reporting Facility
EDT Latitude Longitude Course Direction KTS MPH feet Rate Location/Type
Tue 04:06:48 PM 42.8797 -73.4261 206° Southwest 149 171 3,600  Level Boston Center
Tue 04:08:06 PM 42.8294 -73.4592 206° Southwest 161 185 4,300 561 Climbing Boston Center
Tue 04:09:07 PM 42.7875 -73.4783 199° South 158 182 4,900 590 Climbing Boston Center
Tue 04:10:08 PM 42.7436 -73.5031 202° Southwest 165 190 5,500 541 Climbing Boston Center
Tue 04:11:09 PM 42.6994 -73.5219 197° South 165 190 6,000 406 Climbing Boston Center
Tue 04:12:21 PM 42.6492 -73.5467 200° South 169 194 6,400 236 Climbing Boston Center
Tue 04:13:16 PM 42.6031 -73.5711 201° Southwest 186 214 6,500  Climbing Boston Center
Tue 04:14:17 PM 42.5572 -73.5928 199° South 184 212 6,400 -50 Descending Boston Center
Tue 04:15:17 PM 42.5047 -73.6144 197° South 182 209 6,400  Level Boston Center
Tue 04:16:24 PM 42.4525 -73.6417 201° Southwest 180 207 6,400  Level Boston Center
Tue 04:17:25 PM 42.4064 -73.6633 199° South 181 208 6,400  Level Boston Center
Tue 04:18:26 PM 42.3603 -73.6875 201° Southwest 181 208 6,400  Level Boston Center
Tue 04:19:28 PM 42.3078 -73.7089 197° South 190 219 6,400  Level Boston Center
Tue 04:20:28 PM 42.2617 -73.7306 199° South 195 224 6,400  Level Boston Center
Tue 04:21:40 PM 42.2156 -73.7519 199° South 190 219 6,400 45 Level Boston Center
Tue 04:22:40 PM 42.1550 -73.7814 200° South 190 219 6,500 50 Climbing Boston Center
Tue 04:23:40 PM 42.1131 -73.8031 201° Southwest 190 219 6,500 -50 Level Boston Center
Tue 04:24:40 PM 42.0689 -73.8217 197° South 190 219 6,400 -50 Descending Boston Center
Tue 04:25:40 PM 42.0103 -73.8511 200° South 195 224 6,400  Level Boston Center
Tue 04:26:40 PM 41.9661 -73.8725 200° South 190 219 6,400  Level Boston Center
Tue 04:27:40 PM 41.9139 -73.8964 199° South 190 219 6,400 50 Level Boston Center
Tue 04:28:40 PM 41.8697 -73.9178 200° South 190 219 6,500  Climbing Boston Center
Tue 04:29:40 PM 41.8172 -73.9442 201° Southwest 190 219 6,400  Descending Boston Center
Tue 04:30:40 PM 41.7733 -73.9656 200° South 190 219 6,500  Climbing Boston Center
Tue 04:31:40 PM 41.7208 -73.9894 199° South 190 219 6,400 -50 Descending Boston Center
Tue 04:32:40 PM 41.6789 -74.0078 198° South 185 213 6,400 50 Level Boston Center
Tue 04:33:40 PM 41.6264 -74.0314 199° South 185 213 6,500 50 Climbing Boston Center
Tue 04:34:40 PM 41.5803 -74.0553 201° Southwest 192 221 6,500 50 Level Boston Center
Tue 04:35:40 PM 41.5278 -74.0789 199° South 187 215 6,600 50 Climbing Boston Center
Tue 04:36:40 PM 41.4858 -74.0972 198° South 187 215 6,600  Level Boston Center
Tue 04:37:40 PM 41.4311 -74.1233 200° South 192 221 6,600 -43 Level Boston Center
Tue 04:38:58 PM 41.3667 -74.1500 197° South 186 214 6,500 -83 Descending New York TRACON
Tue 04:40:04 PM 41.3167 -74.1833 207° Southwest 187 215 6,400 -144 Descending New York TRACON
Tue 04:41:03 PM 41.2667 -74.2000 194° South 191 220 6,200 -263 Descending New York TRACON
Tue 04:41:58 PM 41.2167 -74.2167 194° South 201 231 5,900 -417 Descending New York TRACON
Tue 04:42:58 PM 41.1667 -74.2500 207° Southwest 197 227 5,400 -403 Descending New York TRACON
Tue 04:43:57 PM 41.1167 -74.2667 194° South 186 214 5,100 -400 Descending New York TRACON
Tue 04:44:58 PM 41.0667 -74.3000 207° Southwest 184 212 4,600 -446 Descending New York TRACON
Tue 04:45:58 PM 41.0167 -74.3167 194° South 181 208 4,200 -429 Descending New York TRACON
Tue 04:47:04 PM 40.9667 -74.3333 194° South 177 204 3,700 -429 Descending New York TRACON
Tue 04:48:04 PM 40.9333 -74.3667 217° Southwest 171 197 3,300 -450 Descending New York TRACON
Tue 04:49:04 PM 40.8833 -74.4000 207° Southwest 169 194 2,800 -600 Descending New York TRACON
Tue 04:50:04 PM 40.8500 -74.4167 201° Southwest 156 180 2,100 -600 Descending New York TRACON
Tue 04:51:04 PM 40.8167 -74.4000 159° South 119 137 1,600 -550 Descending New York TRACON
Tue 04:52:04 PM 40.8000 -74.3833 143° Southeast 112 129 1,000 -600 Descending New York TRACON
Tue 04:54:00 PM 40.7833 -74.4000 197° South  Level FlightAware Approximate
Tue 05:01:00 PM 40.7993 -74.4149 197° South  Level Estimated
Tue 05:02:00 PM 40.7993 -74.4149 197° South  Level Estimated
Tue 05:03:00 PM 40.7993 -74.4149 197° South  Level Estimated
Tue 05:04:00 PM 40.7993 -74.4149 197° South  Level Estimated
Tue 05:05:00 PM 40.7993 -74.4149 197° South  Level Estimated

Login

Don't have an account? Register now (free) for customized features, flight alerts, and more!